Time;durP1;ratioP1;P1;durP2;ratioP2;P2;SDS_P1;SDS_P2;PMS_P1;PMS_P2;Temp;Humidity;BMP_temperature;BMP_pressure;BME280_temperature;BME280_humidity;BME280_pressure;Samples;Min_cycle;Max_cycle;Signal;HPM_P1;HPM_P2
2022/09/01 00:01:17;;;;;;;9.07;7.68;;;18.80;99.90;;;;;;7390676;19;20167;-74
2022/09/01 00:03:46;;;;;;;10.13;8.27;;;19.00;99.90;;;;;;7387668;19;20611;-74
2022/09/01 00:06:11;;;;;;;8.82;7.05;;;19.10;99.90;;;;;;7390079;19;20134;-75
2022/09/01 00:08:37;;;;;;;12.70;8.07;;;19.30;99.90;;;;;;7385552;19;20135;-75
2022/09/01 00:11:03;;;;;;;12.05;8.20;;;19.40;99.90;;;;;;7390201;19;20592;-75
2022/09/01 00:13:32;;;;;;;9.77;7.93;;;19.40;99.90;;;;;;7393102;19;20618;-76
2022/09/01 00:16:03;;;;;;;10.55;7.82;;;19.30;99.90;;;;;;7389365;19;20143;-75
2022/09/01 00:18:30;;;;;;;10.18;7.82;;;19.40;99.90;;;;;;7389062;19;20164;-73
2022/09/01 00:20:58;;;;;;;9.32;7.82;;;19.40;99.90;;;;;;7390145;19;20162;-74
2022/09/01 00:23:25;;;;;;;9.15;7.82;;;19.50;99.90;;;;;;7393098;19;20146;-75
2022/09/01 00:25:52;;;;;;;11.07;8.52;;;19.50;99.90;;;;;;7397392;19;20183;-75
2022/09/01 00:28:17;;;;;;;8.48;7.57;;;19.30;99.90;;;;;;7395588;19;20596;-76
2022/09/01 00:30:43;;;;;;;14.25;8.35;;;19.30;99.90;;;;;;7396304;19;20170;-77
2022/09/01 00:33:09;;;;;;;10.73;8.35;;;18.90;99.90;;;;;;7396162;19;20221;-75
2022/09/01 00:35:35;;;;;;;9.73;7.88;;;18.90;99.90;;;;;;7396147;19;20134;-75
2022/09/01 00:38:00;;;;;;;10.68;8.35;;;18.80;99.90;;;;;;7396828;19;20143;-75
2022/09/01 00:40:26;;;;;;;9.48;8.10;;;19.00;99.90;;;;;;7395878;19;20640;-75
2022/09/01 00:42:52;;;;;;;11.43;8.52;;;19.20;99.90;;;;;;7395327;19;20142;-76
2022/09/01 00:45:20;;;;;;;9.88;7.78;;;19.20;99.90;;;;;;7395300;19;20155;-75
2022/09/01 00:47:47;;;;;;;11.48;8.27;;;19.20;99.90;;;;;;7396562;19;20147;-75
2022/09/01 00:50:18;;;;;;;12.48;8.60;;;19.10;99.90;;;;;;7393259;19;20189;-75
2022/09/01 00:52:53;;;;;;;9.07;7.55;;;19.20;99.90;;;;;;7397123;19;20150;-76
2022/09/01 00:55:30;;;;;;;9.50;7.53;;;18.90;99.90;;;;;;7395513;19;20234;-75
2022/09/01 00:57:59;;;;;;;10.85;8.23;;;19.00;99.90;;;;;;7396702;19;20158;-76
2022/09/01 01:00:28;;;;;;;8.80;7.32;;;18.70;99.90;;;;;;7395788;19;20162;-74
2022/09/01 01:02:55;;;;;;;12.07;9.25;;;18.80;99.90;;;;;;7394637;19;20198;-74
2022/09/01 01:05:31;;;;;;;12.05;9.18;;;19.00;99.90;;;;;;7395814;19;20150;-74
2022/09/01 01:08:00;;;;;;;11.93;8.98;;;19.00;99.90;;;;;;7396364;19;20142;-75
2022/09/01 01:10:31;;;;;;;11.57;8.40;;;19.00;99.90;;;;;;7397857;19;20153;-74
2022/09/01 01:13:03;;;;;;;13.13;8.43;;;18.80;99.90;;;;;;7396614;19;20604;-75
2022/09/01 01:15:29;;;;;;;11.00;8.10;;;18.80;99.90;;;;;;7395441;19;20738;-74
2022/09/01 01:17:55;;;;;;;9.35;8.23;;;18.80;99.90;;;;;;7394925;19;20228;-75
2022/09/01 01:23:35;;;;;;;9.93;8.05;;;18.90;99.90;;;;;;7395032;19;20142;-74
2022/09/01 01:26:04;;;;;;;10.15;8.18;;;18.90;99.90;;;;;;7396595;19;20214;-74
2022/09/01 01:28:35;;;;;;;12.00;8.95;;;18.90;99.90;;;;;;7394286;19;20151;-74
2022/09/01 01:31:05;;;;;;;11.40;8.63;;;19.00;99.90;;;;;;7394371;19;20183;-75
2022/09/01 01:33:39;;;;;;;13.32;8.88;;;18.70;99.90;;;;;;7393699;19;20146;-76
2022/09/01 01:36:06;;;;;;;11.00;8.63;;;18.80;99.90;;;;;;7394709;19;20131;-75
2022/09/01 01:38:34;;;;;;;12.40;8.05;;;18.90;99.90;;;;;;7394025;19;20146;-75
2022/09/01 01:41:02;;;;;;;12.18;9.02;;;18.90;99.90;;;;;;7388834;19;20165;-75
2022/09/01 01:43:28;;;;;;;9.60;8.00;;;18.90;99.90;;;;;;7394017;19;20152;-75
2022/09/01 01:46:01;;;;;;;10.07;8.70;;;18.90;99.90;;;;;;7392389;19;20538;-74
2022/09/01 01:48:28;;;;;;;12.77;9.38;;;19.00;99.90;;;;;;7394696;19;20135;-75
2022/09/01 01:50:58;;;;;;;10.55;8.60;;;18.40;99.90;;;;;;7392077;19;20643;-74
2022/09/01 01:53:24;;;;;;;10.70;8.63;;;18.40;99.90;;;;;;7397063;19;20139;-75
2022/09/01 01:55:50;;;;;;;13.88;8.27;;;18.50;99.90;;;;;;7392959;19;20149;-75
2022/09/01 01:58:24;;;;;;;11.25;9.07;;;18.70;99.90;;;;;;7392810;19;20134;-74
2022/09/01 02:00:53;;;;;;;10.43;8.75;;;18.50;99.90;;;;;;7390837;19;20596;-75
2022/09/01 02:03:23;;;;;;;11.70;8.82;;;18.60;99.90;;;;;;7388732;19;20134;-74
2022/09/01 02:05:51;;;;;;;10.30;8.45;;;18.50;99.90;;;;;;7393537;19;20161;-75
2022/09/01 02:08:19;;;;;;;12.10;8.45;;;18.40;99.90;;;;;;7393209;19;20142;-76
2022/09/01 02:10:47;;;;;;;10.77;8.77;;;18.50;99.90;;;;;;7395960;19;20137;-79
2022/09/01 02:13:16;;;;;;;11.60;8.30;;;18.50;99.90;;;;;;7393339;19;20135;-78
2022/09/01 02:15:48;;;;;;;11.52;8.95;;;18.50;99.90;;;;;;7393140;19;20126;-79
2022/09/01 02:18:22;;;;;;;8.45;6.90;;;18.20;99.90;;;;;;7394618;19;20138;-79
2022/09/01 02:20:50;;;;;;;10.73;8.38;;;18.30;99.90;;;;;;7395886;19;20131;-79
2022/09/01 02:23:22;;;;;;;9.75;7.72;;;18.50;99.90;;;;;;7392568;19;20229;-79
2022/09/01 02:25:50;;;;;;;11.55;8.15;;;18.50;99.90;;;;;;7394460;19;20150;-78
2022/09/01 02:28:18;;;;;;;8.98;8.07;;;18.30;99.90;;;;;;7394373;19;20123;-78
2022/09/01 02:31:07;;;;;;;9.98;7.88;;;18.40;99.90;;;;;;7393528;19;20946;-78
2022/09/01 02:33:34;;;;;;;10.88;8.02;;;18.60;99.90;;;;;;7395203;19;20165;-79
2022/09/01 02:36:04;;;;;;;11.85;8.00;;;18.50;99.90;;;;;;7393191;19;20803;-79
2022/09/01 02:38:32;;;;;;;10.65;8.43;;;18.60;99.90;;;;;;7393677;19;20150;-76
2022/09/01 02:41:00;;;;;;;10.52;8.38;;;18.60;99.90;;;;;;7395183;19;20209;-78
2022/09/01 02:43:28;;;;;;;9.23;7.80;;;18.60;99.90;;;;;;7392335;19;20205;-75
2022/09/01 02:45:56;;;;;;;11.68;8.60;;;18.50;99.90;;;;;;7390984;19;20122;-75
2022/09/01 02:48:31;;;;;;;14.07;8.90;;;18.40;99.90;;;;;;7395298;19;20139;-74
2022/09/01 02:51:00;;;;;;;10.77;7.45;;;18.50;99.90;;;;;;7393036;19;20733;-74
2022/09/01 02:53:28;;;;;;;9.52;7.47;;;18.20;99.90;;;;;;7392094;19;20146;-74
2022/09/01 02:55:57;;;;;;;8.40;7.53;;;18.30;99.90;;;;;;7392030;19;20161;-75
2022/09/01 02:58:25;;;;;;;11.20;8.38;;;18.20;99.90;;;;;;7393617;19;20134;-75
2022/09/01 03:00:55;;;;;;;10.43;8.07;;;18.30;99.90;;;;;;7392552;19;20571;-75
2022/09/01 03:03:22;;;;;;;9.38;7.70;;;18.40;99.90;;;;;;7393263;19;20130;-74
2022/09/01 03:05:55;;;;;;;9.38;7.75;;;17.90;99.90;;;;;;7392536;19;20171;-74
2022/09/01 03:08:23;;;;;;;10.00;7.88;;;17.90;99.90;;;;;;7394221;19;20151;-75
2022/09/01 03:10:50;;;;;;;8.52;7.50;;;18.00;99.90;;;;;;7392695;19;20154;-75
2022/09/01 03:13:26;;;;;;;9.80;8.02;;;17.80;99.90;;;;;;7393736;19;20170;-74
2022/09/01 03:15:52;;;;;;;8.50;7.18;;;17.80;99.90;;;;;;7394921;19;20139;-74
2022/09/01 03:18:17;;;;;;;9.07;8.05;;;18.00;99.90;;;;;;7394307;19;20142;-75
2022/09/01 03:20:51;;;;;;;10.75;7.60;;;17.90;99.90;;;;;;7391695;19;20232;-74
2022/09/01 03:23:17;;;;;;;8.88;7.72;;;17.90;99.90;;;;;;7391504;19;20534;-75
2022/09/01 03:25:45;;;;;;;9.60;7.00;;;17.70;99.90;;;;;;7391198;19;20185;-75
2022/09/01 03:28:12;;;;;;;12.43;7.90;;;17.50;99.90;;;;;;7391216;19;20150;-75
2022/09/01 03:30:43;;;;;;;8.43;7.00;;;17.80;99.90;;;;;;7391338;19;20143;-75
2022/09/01 03:33:09;;;;;;;9.30;6.95;;;18.00;99.90;;;;;;7393540;19;20138;-75
2022/09/01 03:35:36;;;;;;;8.75;7.47;;;18.10;99.90;;;;;;7392182;19;20171;-75
2022/09/01 03:38:03;;;;;;;9.80;7.88;;;18.20;99.90;;;;;;7391247;19;20624;-75
2022/09/01 03:40:35;;;;;;;10.25;8.27;;;18.20;99.90;;;;;;7394077;19;20215;-74
2022/09/01 03:43:03;;;;;;;12.15;7.85;;;18.30;99.90;;;;;;7392029;19;20129;-74
2022/09/01 03:45:33;;;;;;;9.43;7.20;;;18.20;99.90;;;;;;7393006;19;20141;-74
2022/09/01 03:48:00;;;;;;;8.40;7.43;;;18.20;99.90;;;;;;7392558;19;20209;-75
2022/09/01 03:50:26;;;;;;;8.63;6.43;;;17.60;99.90;;;;;;7392128;19;20667;-75
2022/09/01 03:52:57;;;;;;;9.18;7.32;;;17.90;99.90;;;;;;7391412;19;20138;-75
2022/09/01 03:55:27;;;;;;;8.93;7.43;;;18.10;99.90;;;;;;7393159;19;20138;-74
2022/09/01 03:57:56;;;;;;;10.48;8.05;;;18.20;99.90;;;;;;7398009;19;20139;-73
2022/09/01 04:00:24;;;;;;;10.50;7.55;;;18.30;99.90;;;;;;7399992;19;20138;-75
2022/09/01 04:03:20;;;;;;;10.43;8.70;;;18.30;99.90;;;;;;7396001;19;20130;-75
2022/09/01 04:05:46;;;;;;;11.00;8.43;;;18.30;99.90;;;;;;7399274;19;20150;-75
2022/09/01 04:08:12;;;;;;;11.13;8.50;;;18.30;99.90;;;;;;7398365;19;20149;-74
2022/09/01 04:10:50;;;;;;;15.38;8.27;;;18.20;99.90;;;;;;7397743;19;20684;-75
2022/09/01 04:13:18;;;;;;;11.10;8.57;;;17.90;99.90;;;;;;7398694;19;20137;-74
2022/09/01 04:15:44;;;;;;;10.27;8.93;;;18.00;99.90;;;;;;7398633;19;20213;-74
2022/09/01 04:18:19;;;;;;;11.02;8.55;;;18.00;99.90;;;;;;7400370;19;20592;-74
2022/09/01 04:20:47;;;;;;;10.60;9.00;;;18.10;99.90;;;;;;7398756;19;20624;-76
2022/09/01 04:23:25;;;;;;;9.45;7.70;;;18.00;99.90;;;;;;7396610;19;20611;-75
2022/09/01 04:25:54;;;;;;;12.85;9.23;;;18.00;99.90;;;;;;7398297;19;20139;-75
2022/09/01 04:28:25;;;;;;;11.05;8.98;;;18.00;99.90;;;;;;7398527;19;20174;-74
2022/09/01 04:31:04;;;;;;;11.30;8.80;;;17.90;99.90;;;;;;7396637;19;20668;-76
2022/09/01 04:33:38;;;;;;;11.80;8.75;;;18.00;99.90;;;;;;7395977;19;20163;-74
2022/09/01 04:36:27;;;;;;;11.60;8.77;;;17.80;99.90;;;;;;7396916;19;20139;-73
2022/09/01 04:38:56;;;;;;;11.40;9.07;;;18.00;99.90;;;;;;7398488;19;20142;-73
2022/09/01 04:41:25;;;;;;;10.65;8.70;;;18.10;99.90;;;;;;7396389;19;20138;-74
2022/09/01 04:43:55;;;;;;;11.57;7.95;;;18.10;99.90;;;;;;7396823;19;20194;-74
2022/09/01 04:46:22;;;;;;;8.95;7.93;;;17.90;99.90;;;;;;7397489;19;20140;-74
2022/09/01 04:48:50;;;;;;;9.90;7.40;;;17.90;99.90;;;;;;7397886;19;20131;-74
2022/09/01 04:51:16;;;;;;;9.77;8.00;;;18.00;99.90;;;;;;7397672;19;20161;-73
2022/09/01 04:53:47;;;;;;;9.20;7.60;;;18.10;99.90;;;;;;7397076;19;20127;-74
2022/09/01 04:56:19;;;;;;;10.63;7.63;;;18.00;99.90;;;;;;7396352;19;20158;-74
2022/09/01 04:58:46;;;;;;;10.88;8.80;;;18.20;99.90;;;;;;7395349;19;20604;-75
2022/09/01 05:01:20;;;;;;;10.88;8.80;;;18.20;99.90;;;;;;7397593;19;20139;-74
2022/09/01 05:03:55;;;;;;;11.88;7.95;;;18.00;99.90;;;;;;7393397;19;20584;-75
2022/09/01 05:06:21;;;;;;;11.02;8.27;;;18.00;99.90;;;;;;7395102;19;20130;-74
2022/09/01 05:08:48;;;;;;;13.18;8.68;;;18.10;99.90;;;;;;7392905;19;20142;-74
2022/09/01 05:11:17;;;;;;;10.70;7.82;;;18.00;99.90;;;;;;7396013;19;20154;-73
2022/09/01 05:13:47;;;;;;;9.95;7.82;;;18.00;99.90;;;;;;7399000;19;20144;-74
2022/09/01 05:16:20;;;;;;;9.00;7.45;;;18.00;99.90;;;;;;7395942;19;20146;-73
2022/09/01 05:18:48;;;;;;;14.23;8.15;;;18.20;99.90;;;;;;7397516;19;20576;-73
2022/09/01 05:21:18;;;;;;;10.30;7.68;;;18.30;99.90;;;;;;7397165;19;20142;-73
2022/09/01 05:23:45;;;;;;;17.85;8.50;;;18.00;99.90;;;;;;7396391;19;20156;-73
2022/09/01 05:26:23;;;;;;;10.07;8.40;;;17.90;99.90;;;;;;7396245;19;20592;-72
2022/09/01 05:28:53;;;;;;;13.55;8.32;;;18.10;99.90;;;;;;7396938;19;20219;-73
2022/09/01 05:31:20;;;;;;;10.80;8.63;;;18.10;99.90;;;;;;7392736;19;21009;-72
2022/09/01 05:33:48;;;;;;;13.38;8.65;;;18.10;99.90;;;;;;7395727;19;20143;-71
2022/09/01 05:36:16;;;;;;;8.85;7.35;;;18.20;99.90;;;;;;7396990;19;20142;-71
2022/09/01 05:38:43;;;;;;;13.25;9.10;;;18.20;99.90;;;;;;7397970;19;20631;-74
2022/09/01 05:41:13;;;;;;;11.43;9.60;;;18.10;99.90;;;;;;7396030;19;20142;-74
2022/09/01 05:43:45;;;;;;;11.73;8.45;;;18.10;99.90;;;;;;7393686;19;20139;-73
2022/09/01 05:46:16;;;;;;;9.45;8.07;;;18.00;99.90;;;;;;7393272;19;20153;-74
2022/09/01 05:48:48;;;;;;;10.95;8.68;;;18.00;99.90;;;;;;7396556;19;20138;-74
2022/09/01 05:51:16;;;;;;;10.40;8.23;;;17.90;99.90;;;;;;7395898;19;20134;-74
2022/09/01 05:53:43;;;;;;;10.95;9.20;;;17.90;99.90;;;;;;7397075;19;20145;-74
2022/09/01 05:56:13;;;;;;;11.52;8.68;;;17.80;99.90;;;;;;7391624;19;20606;-75
2022/09/01 05:58:43;;;;;;;13.00;9.48;;;17.80;99.90;;;;;;7395432;19;20142;-74
2022/09/01 06:01:12;;;;;;;13.20;9.32;;;17.80;99.90;;;;;;7394710;19;20158;-74
2022/09/01 06:03:39;;;;;;;11.60;8.93;;;17.90;99.90;;;;;;7395003;19;20584;-74
2022/09/01 06:06:08;;;;;;;11.52;8.90;;;18.00;99.90;;;;;;7393598;19;20143;-75
2022/09/01 06:08:35;;;;;;;13.18;9.00;;;18.00;99.90;;;;;;7394917;19;20163;-74
2022/09/01 06:11:02;;;;;;;12.05;9.57;;;18.10;99.90;;;;;;7393181;19;20588;-75
2022/09/01 06:13:28;;;;;;;10.75;8.43;;;18.20;99.90;;;;;;7394158;19;20270;-75
2022/09/01 06:15:57;;;;;;;13.55;9.43;;;18.20;99.90;;;;;;7395499;19;20146;-75
2022/09/01 06:18:22;;;;;;;13.25;8.77;;;18.20;99.90;;;;;;7394183;19;20639;-75
2022/09/01 06:20:49;;;;;;;14.18;8.52;;;18.30;99.90;;;;;;7391006;19;20146;-74
2022/09/01 06:23:17;;;;;;;10.10;8.77;;;18.30;99.90;;;;;;7392239;19;20631;-74
2022/09/01 06:25:45;;;;;;;11.98;8.95;;;18.40;99.90;;;;;;7393185;19;20218;-75
2022/09/01 06:28:16;;;;;;;13.32;8.82;;;18.40;99.90;;;;;;7391465;19;20194;-75
2022/09/01 06:30:45;;;;;;;11.23;8.73;;;18.50;99.90;;;;;;7393397;19;20214;-73
2022/09/01 06:33:12;;;;;;;11.02;8.68;;;18.50;99.90;;;;;;7392407;19;20273;-74
2022/09/01 06:35:40;;;;;;;12.85;8.65;;;18.50;99.90;;;;;;7392339;19;20154;-74
2022/09/01 06:38:08;;;;;;;14.65;9.48;;;18.50;99.90;;;;;;7391748;19;20146;-74
2022/09/01 06:40:34;;;;;;;10.23;9.13;;;18.60;99.90;;;;;;7393378;19;20490;-73
2022/09/01 06:43:06;;;;;;;11.20;9.10;;;18.60;99.90;;;;;;7391082;19;20142;-74
2022/09/01 06:45:41;;;;;;;11.02;8.70;;;18.60;99.90;;;;;;7391075;19;20142;-74
2022/09/01 06:48:08;;;;;;;10.80;9.07;;;18.70;99.90;;;;;;7389995;19;20138;-74
2022/09/01 06:50:34;;;;;;;9.85;7.93;;;18.90;99.90;;;;;;7389988;19;20155;-74
2022/09/01 06:53:09;;;;;;;10.90;8.73;;;19.00;99.90;;;;;;7394005;19;20138;-74
2022/09/01 06:55:37;;;;;;;9.98;8.50;;;19.00;99.90;;;;;;7391561;19;20130;-75
2022/09/01 06:58:08;;;;;;;13.85;8.95;;;19.00;99.90;;;;;;7392006;19;20142;-74
2022/09/01 07:00:40;;;;;;;11.43;8.30;;;19.00;99.90;;;;;;7388134;19;20216;-75
2022/09/01 07:03:12;;;;;;;13.18;9.23;;;19.20;99.90;;;;;;7391924;19;20131;-75
2022/09/01 07:05:44;;;;;;;15.07;9.10;;;19.20;99.90;;;;;;7392622;19;20135;-75
2022/09/01 07:08:14;;;;;;;12.15;9.35;;;19.20;99.90;;;;;;7391836;19;20139;-74
2022/09/01 07:10:49;;;;;;;11.80;9.02;;;19.10;99.90;;;;;;7392147;19;20184;-74
2022/09/01 07:13:22;;;;;;;10.25;8.43;;;19.10;99.90;;;;;;7395140;19;20209;-75
2022/09/01 07:15:53;;;;;;;11.98;8.57;;;19.10;99.90;;;;;;7390123;19;20168;-76
2022/09/01 07:18:24;;;;;;;11.05;8.57;;;19.10;99.90;;;;;;7391719;19;20225;-75
2022/09/01 07:20:52;;;;;;;9.27;7.88;;;19.30;99.90;;;;;;7391674;19;20130;-75
2022/09/01 07:23:19;;;;;;;10.73;8.65;;;19.40;99.90;;;;;;7389961;19;20222;-75
2022/09/01 07:25:48;;;;;;;12.15;9.02;;;19.40;99.90;;;;;;7391002;19;20129;-74
2022/09/01 07:28:16;;;;;;;9.77;8.35;;;19.40;99.90;;;;;;7389228;19;20157;-74
2022/09/01 07:30:48;;;;;;;11.68;8.63;;;19.40;99.90;;;;;;7389282;19;20147;-73
2022/09/01 07:33:19;;;;;;;9.73;7.93;;;19.50;99.90;;;;;;7392220;19;20155;-74
2022/09/01 07:35:45;;;;;;;10.93;7.82;;;19.90;99.90;;;;;;7390547;19;20528;-73
2022/09/01 07:38:12;;;;;;;8.70;7.32;;;20.20;99.90;;;;;;7389104;19;20145;-74
2022/09/01 07:40:39;;;;;;;9.57;8.02;;;20.10;99.90;;;;;;7391593;19;20151;-74
2022/09/01 07:43:08;;;;;;;8.95;7.63;;;19.40;99.90;;;;;;7388834;19;20467;-74
2022/09/01 07:45:37;;;;;;;8.45;7.50;;;19.70;99.90;;;;;;7387832;19;20127;-74
2022/09/01 07:48:06;;;;;;;8.68;7.78;;;19.90;99.90;;;;;;7391694;19;20488;-74
2022/09/01 07:50:39;;;;;;;9.13;7.32;;;20.20;99.90;;;;;;7390757;19;20202;-73
2022/09/01 07:53:07;;;;;;;9.02;7.75;;;20.30;99.90;;;;;;7389242;19;20600;-73
2022/09/01 08:02:38;;;;;;;9.13;7.10;;;20.50;99.90;;;;;;7346896;19;20151;-73
2022/09/01 08:05:09;;;;;;;9.77;7.68;;;20.20;99.90;;;;;;7388889;19;20126;-74
2022/09/01 08:07:35;;;;;;;8.90;6.97;;;20.30;99.90;;;;;;7389518;19;20173;-73
2022/09/01 08:10:04;;;;;;;8.18;7.18;;;20.30;99.90;;;;;;7391808;19;20151;-72
2022/09/01 08:12:30;;;;;;;8.13;6.80;;;20.20;99.90;;;;;;7389967;19;20480;-75
2022/09/01 08:14:56;;;;;;;7.10;6.40;;;20.20;99.90;;;;;;7391742;19;20616;-75
2022/09/01 08:17:22;;;;;;;9.73;6.18;;;20.20;99.90;;;;;;7392452;19;20143;-75
2022/09/01 08:19:48;;;;;;;8.98;7.05;;;20.20;99.90;;;;;;7386873;19;20383;-73
2022/09/01 08:22:15;;;;;;;6.75;5.93;;;20.20;99.90;;;;;;7386982;19;20165;-73
2022/09/01 08:24:41;;;;;;;7.15;5.57;;;20.30;99.90;;;;;;7390576;19;20210;-73
2022/09/01 08:27:07;;;;;;;5.78;5.22;;;20.40;99.90;;;;;;7388736;19;20143;-73
2022/09/01 08:29:34;;;;;;;7.45;5.95;;;20.40;99.90;;;;;;7390085;19;20139;-73
2022/09/01 08:32:01;;;;;;;6.20;5.60;;;20.40;99.90;;;;;;7390211;19;20130;-73
2022/09/01 08:34:27;;;;;;;7.68;5.70;;;20.50;99.90;;;;;;7391058;19;20143;-73
2022/09/01 08:36:53;;;;;;;6.45;5.80;;;20.50;99.90;;;;;;7390450;19;20138;-74
2022/09/01 08:39:19;;;;;;;7.38;5.35;;;20.50;99.90;;;;;;7390989;19;20475;-74
2022/09/01 08:42:03;;;;;;;7.70;6.10;;;20.50;99.90;;;;;;7389060;19;20142;-73
2022/09/01 08:45:01;;;;;;;5.53;4.90;;;20.60;99.90;;;;;;7397846;19;20138;-73
2022/09/01 08:47:27;;;;;;;5.72;5.00;;;20.50;99.90;;;;;;7395851;19;20172;-74
2022/09/01 08:49:53;;;;;;;6.35;5.10;;;20.40;99.90;;;;;;7394586;19;20193;-74
2022/09/01 08:59:53;;;;;;;5.35;4.72;;;20.10;99.90;;;;;;7367683;19;20404;-74
2022/09/01 09:05:49;;;;;;;6.32;5.00;;;20.30;99.90;;;;;;7358351;19;20230;-74
2022/09/01 09:08:15;;;;;;;6.75;5.45;;;20.40;99.90;;;;;;7393275;19;20151;-73
2022/09/01 09:10:48;;;;;;;6.10;5.20;;;20.40;99.90;;;;;;7396761;19;20135;-74
2022/09/01 09:13:39;;;;;;;6.15;5.30;;;20.60;99.90;;;;;;7397688;19;20576;-74
2022/09/01 09:16:26;;;;;;;6.07;5.20;;;20.60;99.90;;;;;;7394735;19;20146;-75
2022/09/01 09:19:05;;;;;;;6.97;5.15;;;20.50;99.90;;;;;;7396958;19;20504;-73
2022/09/01 09:21:43;;;;;;;6.43;5.43;;;20.60;99.90;;;;;;7397229;19;20142;-73
2022/09/01 09:24:51;;;;;;;5.30;4.70;;;20.70;99.90;;;;;;7393815;19;20189;-73
2022/09/01 09:27:22;;;;;;;6.28;4.47;;;20.70;99.90;;;;;;7396012;19;20142;-72
2022/09/01 09:29:53;;;;;;;5.82;4.78;;;20.70;99.90;;;;;;7397510;19;20236;-73
2022/09/01 09:32:21;;;;;;;5.90;4.80;;;20.80;99.90;;;;;;7397150;19;20434;-72
2022/09/01 09:34:47;;;;;;;5.95;4.63;;;20.80;99.90;;;;;;7394867;19;20480;-73
2022/09/01 09:37:26;;;;;;;4.60;4.20;;;20.90;99.90;;;;;;7395965;19;20145;-73
2022/09/01 09:40:23;;;;;;;4.80;4.30;;;20.80;99.90;;;;;;7394474;19;20795;-73
2022/09/01 09:42:55;;;;;;;10.60;7.03;;;20.80;99.90;;;;;;7395319;19;20150;-72
2022/09/01 09:45:33;;;;;;;4.88;4.28;;;20.80;99.90;;;;;;7395149;19;20141;-74
2022/09/01 09:48:24;;;;;;;5.85;4.75;;;20.90;99.90;;;;;;7395843;19;20387;-77
2022/09/01 09:50:50;;;;;;;5.47;4.95;;;20.90;99.90;;;;;;7391395;19;20760;-78
2022/09/01 09:53:28;;;;;;;4.88;4.38;;;21.00;99.90;;;;;;7395086;19;20147;-76
2022/09/01 09:56:06;;;;;;;7.10;4.35;;;21.20;99.90;;;;;;7395278;19;20478;-77
2022/09/01 09:58:41;;;;;;;7.30;3.90;;;21.10;99.90;;;;;;7395024;19;20138;-77
2022/09/01 10:01:22;;;;;;;5.78;3.90;;;21.40;99.90;;;;;;7395027;19;20170;-79
2022/09/01 10:04:00;;;;;;;5.60;4.30;;;21.50;99.90;;;;;;7391058;19;20421;-76
2022/09/01 10:06:44;;;;;;;4.25;3.85;;;21.40;99.90;;;;;;7394009;19;20141;-76
2022/09/01 10:09:35;;;;;;;4.60;4.10;;;21.30;99.90;;;;;;7394105;19;20149;-75
2022/09/01 10:12:02;;;;;;;5.88;3.88;;;21.30;99.90;;;;;;7393469;19;20158;-75
2022/09/01 10:14:41;;;;;;;5.60;3.88;;;21.30;99.90;;;;;;7395070;19;20210;-75
2022/09/01 10:17:14;;;;;;;3.95;3.53;;;21.20;99.90;;;;;;7395037;19;20588;-74
2022/09/01 10:19:53;;;;;;;4.70;3.53;;;21.30;99.90;;;;;;7394483;19;20141;-77
2022/09/01 10:22:19;;;;;;;4.20;3.50;;;21.50;99.90;;;;;;7394457;19;20141;-77
2022/09/01 10:24:45;;;;;;;5.65;3.55;;;21.50;99.90;;;;;;7394536;19;20162;-76
2022/09/01 10:27:20;;;;;;;3.88;3.47;;;21.40;99.90;;;;;;7394914;19;20712;-77
2022/09/01 10:29:57;;;;;;;4.40;3.70;;;21.30;99.90;;;;;;7394803;19;20144;-76
2022/09/01 10:32:32;;;;;;;3.90;3.40;;;21.40;99.90;;;;;;7395508;19;20134;-76
2022/09/01 10:35:00;;;;;;;4.30;3.28;;;21.50;99.90;;;;;;7393073;19;20142;-74
2022/09/01 10:37:26;;;;;;;3.30;2.78;;;21.70;99.90;;;;;;7392786;19;20201;-73
2022/09/01 10:40:13;;;;;;;5.13;2.90;;;21.70;99.90;;;;;;7384288;19;20164;-76
2022/09/01 10:42:41;;;;;;;3.15;2.85;;;21.50;99.90;;;;;;7385101;19;20558;-75
2022/09/01 10:45:17;;;;;;;3.10;2.80;;;21.70;99.90;;;;;;7388393;19;20139;-74
2022/09/01 10:47:44;;;;;;;3.95;2.90;;;21.90;99.90;;;;;;7390777;19;20504;-74
2022/09/01 10:50:38;;;;;;;3.33;3.03;;;21.90;99.90;;;;;;7389488;19;20505;-74
2022/09/01 10:53:05;;;;;;;2.85;2.65;;;22.10;99.90;;;;;;7391247;19;20146;-76
2022/09/01 10:55:46;;;;;;;2.85;2.65;;;22.20;99.90;;;;;;7390610;19;20222;-75
2022/09/01 10:58:37;;;;;;;3.20;2.45;;;22.10;99.90;;;;;;7394966;19;20596;-77
2022/09/01 11:01:03;;;;;;;3.05;2.60;;;22.20;99.90;;;;;;7394951;19;20130;-71
2022/09/01 11:03:36;;;;;;;3.00;2.47;;;22.40;99.90;;;;;;7391733;19;20552;-73
2022/09/01 11:06:08;;;;;;;2.60;2.40;;;22.50;99.90;;;;;;7387315;19;20143;-75
2022/09/01 11:08:41;;;;;;;2.50;2.30;;;22.50;99.90;;;;;;7392709;19;20139;-73
2022/09/01 11:11:30;;;;;;;2.95;2.53;;;22.40;99.90;;;;;;7376598;19;20163;-73
2022/09/01 11:13:57;;;;;;;3.25;2.92;;;22.30;99.90;;;;;;7377616;19;20146;-74
2022/09/01 11:16:36;;;;;;;2.78;2.50;;;22.20;99.90;;;;;;7364799;19;20157;-75
2022/09/01 11:19:31;;;;;;;4.65;3.00;;;22.10;99.90;;;;;;7391620;19;20146;-72
2022/09/01 11:22:12;;;;;;;4.38;2.72;;;22.10;99.90;;;;;;7391657;19;20130;-72
2022/09/01 11:24:40;;;;;;;3.65;2.75;;;22.10;99.90;;;;;;7388489;19;20639;-73
2022/09/01 11:27:09;;;;;;;3.50;2.63;;;22.10;99.90;;;;;;7392780;19;20194;-73
2022/09/01 11:29:57;;;;;;;3.50;2.90;;;22.10;99.90;;;;;;7390993;19;20158;-75
2022/09/01 11:32:37;;;;;;;3.00;2.70;;;22.30;99.90;;;;;;7393043;19;20142;-74
2022/09/01 11:35:21;;;;;;;2.90;2.60;;;22.30;99.90;;;;;;7392744;19;20138;-73
2022/09/01 11:37:54;;;;;;;2.78;2.40;;;22.40;99.90;;;;;;7394017;19;20145;-73
2022/09/01 11:40:28;;;;;;;2.45;2.22;;;22.50;99.90;;;;;;7391827;19;20146;-73
2022/09/01 11:42:57;;;;;;;2.40;2.20;;;22.70;99.90;;;;;;7389225;19;20801;-76
2022/09/01 11:45:29;;;;;;;2.53;2.33;;;22.70;99.90;;;;;;7388334;19;20153;-73
2022/09/01 11:47:59;;;;;;;2.90;2.60;;;22.80;99.90;;;;;;7383172;19;20122;-74
2022/09/01 11:50:35;;;;;;;4.93;2.80;;;22.90;99.90;;;;;;7383279;19;20182;-74
2022/09/01 11:53:09;;;;;;;4.75;2.30;;;23.00;99.90;;;;;;7389565;19;20213;-75
2022/09/01 11:55:43;;;;;;;2.88;2.47;;;23.20;99.90;;;;;;7388963;19;20141;-73
2022/09/01 11:58:27;;;;;;;2.70;2.10;;;23.20;99.90;;;;;;7392677;19;20160;-74
2022/09/01 12:01:14;;;;;;;3.30;2.70;;;23.20;99.90;;;;;;7390954;19;20629;-75
2022/09/01 12:03:41;;;;;;;2.30;2.10;;;23.30;99.90;;;;;;7390873;19;20142;-73
2022/09/01 12:06:09;;;;;;;2.42;2.22;;;23.30;99.90;;;;;;7389664;19;20165;-73
2022/09/01 12:08:41;;;;;;;2.78;2.55;;;23.20;99.90;;;;;;7393118;19;20155;-74
2022/09/01 12:11:20;;;;;;;3.83;2.30;;;23.20;99.90;;;;;;7390305;19;20134;-74
2022/09/01 12:14:06;;;;;;;4.00;2.90;;;23.30;99.90;;;;;;7391850;19;20203;-74
2022/09/01 12:16:35;;;;;;;3.60;2.47;;;23.30;99.90;;;;;;7392196;19;20521;-74
2022/09/01 12:19:03;;;;;;;2.55;2.35;;;23.40;99.90;;;;;;7396476;19;20131;-74
2022/09/01 12:21:41;;;;;;;3.83;2.95;;;23.30;99.90;;;;;;7398688;19;20130;-74
2022/09/01 12:24:22;;;;;;;3.47;2.80;;;23.30;99.90;;;;;;7394325;19;20131;-74
2022/09/01 12:26:53;;;;;;;3.40;2.40;;;23.30;99.90;;;;;;7397436;19;20473;-72
2022/09/01 12:29:20;;;;;;;2.80;2.53;;;23.20;99.90;;;;;;7399745;19;20119;-74
2022/09/01 12:31:49;;;;;;;3.33;2.40;;;23.20;99.90;;;;;;7398036;19;20134;-74
2022/09/01 12:34:32;;;;;;;3.17;2.50;;;23.30;99.90;;;;;;7398410;19;20145;-74
2022/09/01 12:37:23;;;;;;;2.60;2.20;;;23.20;99.90;;;;;;7399804;19;20142;-74
2022/09/01 12:39:56;;;;;;;2.60;2.33;;;23.10;99.90;;;;;;7397194;19;20170;-73
2022/09/01 12:42:23;;;;;;;2.88;2.47;;;23.20;99.90;;;;;;7396703;19;20537;-73
2022/09/01 12:44:52;;;;;;;2.38;2.17;;;23.30;99.90;;;;;;7396397;19;20142;-72
2022/09/01 12:47:35;;;;;;;2.70;1.98;;;23.40;99.90;;;;;;7397070;19;20226;-72
2022/09/01 12:50:01;;;;;;;3.15;1.90;;;23.40;99.90;;;;;;7396406;19;20222;-74
2022/09/01 12:52:29;;;;;;;2.33;2.13;;;23.60;99.90;;;;;;7393974;19;20138;-74
2022/09/01 12:54:58;;;;;;;1.98;1.80;;;23.50;99.90;;;;;;7394961;19;20620;-72
2022/09/01 12:57:47;;;;;;;2.83;2.58;;;23.50;99.90;;;;;;7395326;19;20142;-73
2022/09/01 13:10:42;;;;;;;1.88;1.75;;;23.70;99.90;;;;;;7354980;19;20151;-75
2022/09/01 13:13:08;;;;;;;2.78;2.58;;;24.00;99.90;;;;;;7393663;19;20143;-74
2022/09/01 13:15:37;;;;;;;3.05;2.22;;;24.00;99.90;;;;;;7394485;19;20173;-73
2022/09/01 13:18:02;;;;;;;2.55;2.28;;;24.10;99.90;;;;;;7393826;19;20143;-73
2022/09/01 13:20:29;;;;;;;2.90;2.60;;;24.40;99.90;;;;;;7395446;19;20161;-73
2022/09/01 13:22:55;;;;;;;3.55;2.53;;;24.50;99.90;;;;;;7394135;19;20146;-73
2022/09/01 13:25:23;;;;;;;3.72;2.45;;;24.20;99.90;;;;;;7396657;19;20139;-74
2022/09/01 13:27:51;;;;;;;2.40;2.17;;;24.20;99.90;;;;;;7396065;19;20146;-74
2022/09/01 13:30:20;;;;;;;2.63;2.42;;;24.00;99.90;;;;;;7397229;19;20139;-74
2022/09/01 13:32:48;;;;;;;2.53;2.20;;;23.90;99.90;;;;;;7398322;19;20154;-76
2022/09/01 13:35:16;;;;;;;2.60;2.40;;;23.80;99.90;;;;;;7396373;19;20230;-75